<?xml version="1.0" encoding="UTF-8" standalone="no" ?>
<gpx xmlns="http://www.topografix.com/GPX/1/1" xmlns:xsi="http://www.w3.org/2001/XMLSchema-instance" xsi:schemaLocation="http://www.topografix.com/GPX/1/1 http://www.topografix.com/GPX/1/1/gpx.xsd" version="1.1" creator="VisuGPX - https://www.visugpx.com">
  <metadata>
    <name>Traversée des Pyrénées 3/8</name>
    <desc><![CDATA[Partie 3/8 de la traversée des Pyrénées à ski.]]></desc>
  </metadata>
  <wpt lat="42.70045" lon="1.09901">
    <ele>1267.5</ele>
    <name><![CDATA[Alos de Isil]]></name>
    <type><![CDATA[user]]></type>
  </wpt>
  <wpt lat="42.66834" lon="1.00357">
    <ele>2334.7</ele>
    <name><![CDATA[Col Estany Pudo]]></name>
    <type><![CDATA[user]]></type>
  </wpt>
  <wpt lat="42.69903" lon="1.00893">
    <ele>2497.3671875</ele>
    <name><![CDATA[Coll Rosari]]></name>
    <type><![CDATA[user]]></type>
  </wpt>
  <wpt lat="42.70381" lon="1.16567">
    <ele>2542.86328125</ele>
    <name><![CDATA[Collada Mont Roig]]></name>
    <type><![CDATA[user]]></type>
  </wpt>
  <wpt lat="42.71179" lon="1.42851">
    <ele>1187.453125</ele>
    <name><![CDATA[L'Artigue]]></name>
    <type><![CDATA[user]]></type>
  </wpt>
  <wpt lat="42.71197" lon="1.27776">
    <ele>2852.0136</ele>
    <name><![CDATA[Pic de Certescan]]></name>
    <type><![CDATA[user]]></type>
  </wpt>
  <wpt lat="42.7012" lon="1.17614">
    <ele>2752.9536</ele>
    <name><![CDATA[Pic de la Gallina]]></name>
    <type><![CDATA[user]]></type>
  </wpt>
  <wpt lat="42.66386" lon="0.97978">
    <ele>2063.25390625</ele>
    <name><![CDATA[Port de la Bonaigua]]></name>
    <type><![CDATA[user]]></type>
  </wpt>
  <wpt lat="42.70308" lon="1.35079">
    <ele>2474.3</ele>
    <name><![CDATA[Port de Lartigue]]></name>
    <type><![CDATA[user]]></type>
  </wpt>
  <wpt lat="42.69695" lon="1.04158">
    <ele>2192.5</ele>
    <name><![CDATA[Ref Airoto]]></name>
    <type><![CDATA[user]]></type>
  </wpt>
  <wpt lat="42.70388" lon="1.3065">
    <ele>2232.6</ele>
    <name><![CDATA[Ref de Certescan]]></name>
    <type><![CDATA[user]]></type>
  </wpt>
  <wpt lat="42.70608" lon="1.18865">
    <ele>2295.4</ele>
    <name><![CDATA[Ref de Mont roig]]></name>
    <type><![CDATA[user]]></type>
  </wpt>
  <trk>
    <name><![CDATA[TPS3_J3 22 FEV 2017 07:47]]></name>
    <trkseg>
      <trkpt lat="42.70588" lon="1.18918">
        <ele>2253.47</ele>
        <time>2017-02-22T06:47:16Z</time>
      </trkpt>
      <trkpt lat="42.70594" lon="1.18899">
        <ele>2281.35</ele>
        <time>2017-02-22T07:01:40Z</time>
      </trkpt>
      <trkpt lat="42.70589" lon="1.1889">
        <ele>2279.42</ele>
        <time>2017-02-22T07:01:54Z</time>
      </trkpt>
      <trkpt lat="42.70585" lon="1.18869">
        <ele>2274.62</ele>
        <time>2017-02-22T07:02:15Z</time>
      </trkpt>
      <trkpt lat="42.70569" lon="1.18816">
        <ele>2267.41</ele>
        <time>2017-02-22T07:03:48Z</time>
      </trkpt>
      <trkpt lat="42.70517" lon="1.18848">
        <ele>2266.93</ele>
        <time>2017-02-22T07:06:48Z</time>
      </trkpt>
      <trkpt lat="42.70441" lon="1.18851">
        <ele>2277.98</ele>
        <time>2017-02-22T07:09:13Z</time>
      </trkpt>
      <trkpt lat="42.70405" lon="1.18819">
        <ele>2287.59</ele>
        <time>2017-02-22T07:11:12Z</time>
      </trkpt>
      <trkpt lat="42.70344" lon="1.18742">
        <ele>2296.73</ele>
        <time>2017-02-22T07:13:36Z</time>
      </trkpt>
      <trkpt lat="42.70343" lon="1.18723">
        <ele>2300.09</ele>
        <time>2017-02-22T07:14:06Z</time>
      </trkpt>
      <trkpt lat="42.70335" lon="1.18719">
        <ele>2300.57</ele>
        <time>2017-02-22T07:14:31Z</time>
      </trkpt>
      <trkpt lat="42.70281" lon="1.18712">
        <ele>2305.86</ele>
        <time>2017-02-22T07:15:59Z</time>
      </trkpt>
      <trkpt lat="42.7023" lon="1.18608">
        <ele>2320.76</ele>
        <time>2017-02-22T07:18:41Z</time>
      </trkpt>
      <trkpt lat="42.70212" lon="1.18544">
        <ele>2329.89</ele>
        <time>2017-02-22T07:21:32Z</time>
      </trkpt>
      <trkpt lat="42.70178" lon="1.18575">
        <ele>2351.52</ele>
        <time>2017-02-22T07:22:48Z</time>
      </trkpt>
      <trkpt lat="42.70093" lon="1.18596">
        <ele>2335.18</ele>
        <time>2017-02-22T07:24:33Z</time>
      </trkpt>
      <trkpt lat="42.70036" lon="1.18646">
        <ele>2344.31</ele>
        <time>2017-02-22T07:26:23Z</time>
      </trkpt>
      <trkpt lat="42.70024" lon="1.18605">
        <ele>2354.41</ele>
        <time>2017-02-22T07:28:19Z</time>
      </trkpt>
      <trkpt lat="42.69988" lon="1.18603">
        <ele>2361.62</ele>
        <time>2017-02-22T07:29:37Z</time>
      </trkpt>
      <trkpt lat="42.69978" lon="1.18563">
        <ele>2370.75</ele>
        <time>2017-02-22T07:31:08Z</time>
      </trkpt>
      <trkpt lat="42.69973" lon="1.18563">
        <ele>2371.23</ele>
        <time>2017-02-22T07:31:23Z</time>
      </trkpt>
      <trkpt lat="42.69964" lon="1.18563">
        <ele>2374.11</ele>
        <time>2017-02-22T07:31:54Z</time>
      </trkpt>
      <trkpt lat="42.69964" lon="1.18563">
        <ele>2389.01</ele>
        <time>2017-02-22T07:32:02Z</time>
      </trkpt>
      <trkpt lat="42.69948" lon="1.18563">
        <ele>2374.59</ele>
        <time>2017-02-22T07:32:53Z</time>
      </trkpt>
      <trkpt lat="42.69957" lon="1.1855">
        <ele>2371.71</ele>
        <time>2017-02-22T07:33:19Z</time>
      </trkpt>
      <trkpt lat="42.69958" lon="1.18538">
        <ele>2369.79</ele>
        <time>2017-02-22T07:33:26Z</time>
      </trkpt>
      <trkpt lat="42.69958" lon="1.18511">
        <ele>2363.06</ele>
        <time>2017-02-22T07:33:38Z</time>
      </trkpt>
      <trkpt lat="42.6992" lon="1.18502">
        <ele>2363.06</ele>
        <time>2017-02-22T07:34:33Z</time>
      </trkpt>
      <trkpt lat="42.69889" lon="1.18536">
        <ele>2372.19</ele>
        <time>2017-02-22T07:36:00Z</time>
      </trkpt>
      <trkpt lat="42.69877" lon="1.18534">
        <ele>2382.76</ele>
        <time>2017-02-22T07:37:59Z</time>
      </trkpt>
      <trkpt lat="42.69869" lon="1.18528">
        <ele>2386.13</ele>
        <time>2017-02-22T07:38:46Z</time>
      </trkpt>
      <trkpt lat="42.6985" lon="1.18521">
        <ele>2388.05</ele>
        <time>2017-02-22T07:39:12Z</time>
      </trkpt>
      <trkpt lat="42.69838" lon="1.186">
        <ele>2406.32</ele>
        <time>2017-02-22T07:42:11Z</time>
      </trkpt>
      <trkpt lat="42.69856" lon="1.18657">
        <ele>2420.26</ele>
        <time>2017-02-22T07:44:21Z</time>
      </trkpt>
      <trkpt lat="42.69826" lon="1.18656">
        <ele>2428.43</ele>
        <time>2017-02-22T07:45:34Z</time>
      </trkpt>
      <trkpt lat="42.69815" lon="1.18683">
        <ele>2438.04</ele>
        <time>2017-02-22T07:46:55Z</time>
      </trkpt>
      <trkpt lat="42.698" lon="1.18687">
        <ele>2439.96</ele>
        <time>2017-02-22T07:47:30Z</time>
      </trkpt>
      <trkpt lat="42.6976" lon="1.18687">
        <ele>2451.5</ele>
        <time>2017-02-22T07:49:03Z</time>
      </trkpt>
      <trkpt lat="42.69722" lon="1.18684">
        <ele>2459.67</ele>
        <time>2017-02-22T07:50:29Z</time>
      </trkpt>
      <trkpt lat="42.69678" lon="1.1871">
        <ele>2470.73</ele>
        <time>2017-02-22T07:52:39Z</time>
      </trkpt>
      <trkpt lat="42.69678" lon="1.1871">
        <ele>2459.67</ele>
        <time>2017-02-22T07:53:02Z</time>
      </trkpt>
      <trkpt lat="42.69678" lon="1.18709">
        <ele>2483.7</ele>
        <time>2017-02-22T07:53:24Z</time>
      </trkpt>
      <trkpt lat="42.69678" lon="1.18709">
        <ele>2488.03</ele>
        <time>2017-02-22T07:53:31Z</time>
      </trkpt>
      <trkpt lat="42.69654" lon="1.18667">
        <ele>2483.7</ele>
        <time>2017-02-22T07:58:07Z</time>
      </trkpt>
      <trkpt lat="42.69653" lon="1.18665">
        <ele>2475.53</ele>
        <time>2017-02-22T07:58:26Z</time>
      </trkpt>
      <trkpt lat="42.69624" lon="1.18652">
        <ele>2475.53</ele>
        <time>2017-02-22T07:59:03Z</time>
      </trkpt>
      <trkpt lat="42.6967" lon="1.18356">
        <ele>2504.85</ele>
        <time>2017-02-22T08:04:53Z</time>
      </trkpt>
      <trkpt lat="42.69674" lon="1.18248">
        <ele>2480.82</ele>
        <time>2017-02-22T08:07:36Z</time>
      </trkpt>
      <trkpt lat="42.69704" lon="1.1811">
        <ele>2483.22</ele>
        <time>2017-02-22T08:10:25Z</time>
      </trkpt>
      <trkpt lat="42.69695" lon="1.18068">
        <ele>2490.43</ele>
        <time>2017-02-22T08:11:30Z</time>
      </trkpt>
      <trkpt lat="42.69718" lon="1.18067">
        <ele>2497.16</ele>
        <time>2017-02-22T08:12:45Z</time>
      </trkpt>
      <trkpt lat="42.69717" lon="1.18034">
        <ele>2504.37</ele>
        <time>2017-02-22T08:13:48Z</time>
      </trkpt>
      <trkpt lat="42.69727" lon="1.18004">
        <ele>2509.66</ele>
        <time>2017-02-22T08:14:46Z</time>
      </trkpt>
      <trkpt lat="42.69732" lon="1.17975">
        <ele>2517.35</ele>
        <time>2017-02-22T08:16:17Z</time>
      </trkpt>
      <trkpt lat="42.69732" lon="1.1796">
        <ele>2517.35</ele>
        <time>2017-02-22T08:19:52Z</time>
      </trkpt>
      <trkpt lat="42.69739" lon="1.17953">
        <ele>2520.71</ele>
        <time>2017-02-22T08:23:07Z</time>
      </trkpt>
      <trkpt lat="42.6975" lon="1.17941">
        <ele>2522.64</ele>
        <time>2017-02-22T08:24:14Z</time>
      </trkpt>
      <trkpt lat="42.69791" lon="1.17863">
        <ele>2536.58</ele>
        <time>2017-02-22T08:26:36Z</time>
      </trkpt>
      <trkpt lat="42.69791" lon="1.17836">
        <ele>2538.5</ele>
        <time>2017-02-22T08:27:11Z</time>
      </trkpt>
      <trkpt lat="42.69811" lon="1.17795">
        <ele>2542.82</ele>
        <time>2017-02-22T08:28:22Z</time>
      </trkpt>
      <trkpt lat="42.69849" lon="1.17758">
        <ele>2554.36</ele>
        <time>2017-02-22T08:30:30Z</time>
      </trkpt>
      <trkpt lat="42.69913" lon="1.17721">
        <ele>2569.26</ele>
        <time>2017-02-22T08:32:29Z</time>
      </trkpt>
      <trkpt lat="42.6992" lon="1.17701">
        <ele>2575.03</ele>
        <time>2017-02-22T08:33:25Z</time>
      </trkpt>
      <trkpt lat="42.69917" lon="1.17685">
        <ele>2579.35</ele>
        <time>2017-02-22T08:34:11Z</time>
      </trkpt>
      <trkpt lat="42.69908" lon="1.17667">
        <ele>2585.12</ele>
        <time>2017-02-22T08:34:58Z</time>
      </trkpt>
      <trkpt lat="42.69915" lon="1.17656">
        <ele>2587.04</ele>
        <time>2017-02-22T08:37:40Z</time>
      </trkpt>
      <trkpt lat="42.69949" lon="1.17664">
        <ele>2597.14</ele>
        <time>2017-02-22T08:39:20Z</time>
      </trkpt>
      <trkpt lat="42.69947" lon="1.17637">
        <ele>2604.83</ele>
        <time>2017-02-22T08:40:29Z</time>
      </trkpt>
      <trkpt lat="42.69973" lon="1.17637">
        <ele>2613</ele>
        <time>2017-02-22T08:41:54Z</time>
      </trkpt>
      <trkpt lat="42.69971" lon="1.17616">
        <ele>2617.81</ele>
        <time>2017-02-22T08:42:42Z</time>
      </trkpt>
      <trkpt lat="42.69997" lon="1.17646">
        <ele>2629.34</ele>
        <time>2017-02-22T08:44:46Z</time>
      </trkpt>
      <trkpt lat="42.70008" lon="1.17605">
        <ele>2639.92</ele>
        <time>2017-02-22T08:46:52Z</time>
      </trkpt>
      <trkpt lat="42.70019" lon="1.17622">
        <ele>2645.69</ele>
        <time>2017-02-22T08:47:56Z</time>
      </trkpt>
      <trkpt lat="42.70021" lon="1.17614">
        <ele>2647.13</ele>
        <time>2017-02-22T08:48:15Z</time>
      </trkpt>
      <trkpt lat="42.70017" lon="1.17578">
        <ele>2653.38</ele>
        <time>2017-02-22T08:50:53Z</time>
      </trkpt>
      <trkpt lat="42.70017" lon="1.17578">
        <ele>2654.34</ele>
        <time>2017-02-22T08:51:02Z</time>
      </trkpt>
      <trkpt lat="42.70013" lon="1.1757">
        <ele>2653.86</ele>
        <time>2017-02-22T09:04:55Z</time>
      </trkpt>
      <trkpt lat="42.70019" lon="1.17558">
        <ele>2647.13</ele>
        <time>2017-02-22T09:05:42Z</time>
      </trkpt>
      <trkpt lat="42.70034" lon="1.17537">
        <ele>2641.84</ele>
        <time>2017-02-22T09:05:56Z</time>
      </trkpt>
      <trkpt lat="42.70039" lon="1.17525">
        <ele>2637.99</ele>
        <time>2017-02-22T09:06:08Z</time>
      </trkpt>
      <trkpt lat="42.70034" lon="1.17514">
        <ele>2634.15</ele>
        <time>2017-02-22T09:06:22Z</time>
      </trkpt>
      <trkpt lat="42.70043" lon="1.17507">
        <ele>2630.79</ele>
        <time>2017-02-22T09:06:31Z</time>
      </trkpt>
      <trkpt lat="42.70043" lon="1.17506">
        <ele>2628.38</ele>
        <time>2017-02-22T09:06:33Z</time>
      </trkpt>
      <trkpt lat="42.70041" lon="1.17492">
        <ele>2624.06</ele>
        <time>2017-02-22T09:06:44Z</time>
      </trkpt>
      <trkpt lat="42.70041" lon="1.1747">
        <ele>2614.44</ele>
        <time>2017-02-22T09:07:01Z</time>
      </trkpt>
      <trkpt lat="42.70047" lon="1.17468">
        <ele>2612.52</ele>
        <time>2017-02-22T09:07:05Z</time>
      </trkpt>
      <trkpt lat="42.70051" lon="1.17459">
        <ele>2605.31</ele>
        <time>2017-02-22T09:07:14Z</time>
      </trkpt>
      <trkpt lat="42.7006" lon="1.17454">
        <ele>2602.43</ele>
        <time>2017-02-22T09:07:27Z</time>
      </trkpt>
      <trkpt lat="42.70053" lon="1.17444">
        <ele>2598.58</ele>
        <time>2017-02-22T09:07:41Z</time>
      </trkpt>
      <trkpt lat="42.70068" lon="1.17434">
        <ele>2589.45</ele>
        <time>2017-02-22T09:07:57Z</time>
      </trkpt>
      <trkpt lat="42.70065" lon="1.17425">
        <ele>2586.08</ele>
        <time>2017-02-22T09:08:01Z</time>
      </trkpt>
      <trkpt lat="42.70062" lon="1.17422">
        <ele>2585.6</ele>
        <time>2017-02-22T09:08:06Z</time>
      </trkpt>
      <trkpt lat="42.70069" lon="1.17417">
        <ele>2580.8</ele>
        <time>2017-02-22T09:08:11Z</time>
      </trkpt>
      <trkpt lat="42.70067" lon="1.17409">
        <ele>2575.99</ele>
        <time>2017-02-22T09:08:18Z</time>
      </trkpt>
      <trkpt lat="42.70061" lon="1.17403">
        <ele>2575.03</ele>
        <time>2017-02-22T09:08:27Z</time>
      </trkpt>
      <trkpt lat="42.70078" lon="1.17395">
        <ele>2568.3</ele>
        <time>2017-02-22T09:08:36Z</time>
      </trkpt>
      <trkpt lat="42.70078" lon="1.17385">
        <ele>2564.93</ele>
        <time>2017-02-22T09:08:39Z</time>
      </trkpt>
      <trkpt lat="42.70068" lon="1.17366">
        <ele>2561.57</ele>
        <time>2017-02-22T09:08:45Z</time>
      </trkpt>
      <trkpt lat="42.70074" lon="1.17363">
        <ele>2557.73</ele>
        <time>2017-02-22T09:08:49Z</time>
      </trkpt>
      <trkpt lat="42.70082" lon="1.17363">
        <ele>2555.8</ele>
        <time>2017-02-22T09:08:58Z</time>
      </trkpt>
      <trkpt lat="42.70077" lon="1.17348">
        <ele>2552.44</ele>
        <time>2017-02-22T09:09:03Z</time>
      </trkpt>
      <trkpt lat="42.70082" lon="1.17339">
        <ele>2546.19</ele>
        <time>2017-02-22T09:09:06Z</time>
      </trkpt>
      <trkpt lat="42.70092" lon="1.17289">
        <ele>2528.89</ele>
        <time>2017-02-22T09:09:17Z</time>
      </trkpt>
      <trkpt lat="42.70124" lon="1.17292">
        <ele>2520.71</ele>
        <time>2017-02-22T09:10:19Z</time>
      </trkpt>
      <trkpt lat="42.70116" lon="1.17281">
        <ele>2517.83</ele>
        <time>2017-02-22T09:10:26Z</time>
      </trkpt>
      <trkpt lat="42.70108" lon="1.17263">
        <ele>2514.95</ele>
        <time>2017-02-22T09:10:37Z</time>
      </trkpt>
      <trkpt lat="42.7012" lon="1.17261">
        <ele>2510.62</ele>
        <time>2017-02-22T09:10:45Z</time>
      </trkpt>
      <trkpt lat="42.70145" lon="1.17252">
        <ele>2503.89</ele>
        <time>2017-02-22T09:10:56Z</time>
      </trkpt>
      <trkpt lat="42.70133" lon="1.17238">
        <ele>2500.05</ele>
        <time>2017-02-22T09:11:10Z</time>
      </trkpt>
      <trkpt lat="42.70148" lon="1.17222">
        <ele>2493.32</ele>
        <time>2017-02-22T09:11:15Z</time>
      </trkpt>
      <trkpt lat="42.70166" lon="1.17196">
        <ele>2490.91</ele>
        <time>2017-02-22T09:11:20Z</time>
      </trkpt>
      <trkpt lat="42.70182" lon="1.17139">
        <ele>2488.51</ele>
        <time>2017-02-22T09:11:58Z</time>
      </trkpt>
      <trkpt lat="42.70187" lon="1.17133">
        <ele>2486.59</ele>
        <time>2017-02-22T09:12:06Z</time>
      </trkpt>
      <trkpt lat="42.70218" lon="1.17068">
        <ele>2482.26</ele>
        <time>2017-02-22T09:12:23Z</time>
      </trkpt>
      <trkpt lat="42.70204" lon="1.17039">
        <ele>2486.59</ele>
        <time>2017-02-22T09:19:44Z</time>
      </trkpt>
      <trkpt lat="42.70205" lon="1.17036">
        <ele>2486.11</ele>
        <time>2017-02-22T09:20:00Z</time>
      </trkpt>
      <trkpt lat="42.70224" lon="1.17038">
        <ele>2493.32</ele>
        <time>2017-02-22T09:21:28Z</time>
      </trkpt>
      <trkpt lat="42.70227" lon="1.17026">
        <ele>2497.16</ele>
        <time>2017-02-22T09:22:24Z</time>
      </trkpt>
      <trkpt lat="42.70247" lon="1.16977">
        <ele>2505.81</ele>
        <time>2017-02-22T09:24:04Z</time>
      </trkpt>
      <trkpt lat="42.70321" lon="1.16906">
        <ele>2511.58</ele>
        <time>2017-02-22T09:26:36Z</time>
      </trkpt>
      <trkpt lat="42.70359" lon="1.16828">
        <ele>2525.52</ele>
        <time>2017-02-22T09:30:20Z</time>
      </trkpt>
      <trkpt lat="42.70359" lon="1.16828">
        <ele>2522.16</ele>
        <time>2017-02-22T09:31:06Z</time>
      </trkpt>
      <trkpt lat="42.70405" lon="1.16808">
        <ele>2529.85</ele>
        <time>2017-02-22T09:33:55Z</time>
      </trkpt>
      <trkpt lat="42.70417" lon="1.16774">
        <ele>2551</ele>
        <time>2017-02-22T09:35:22Z</time>
      </trkpt>
      <trkpt lat="42.70425" lon="1.16696">
        <ele>2543.31</ele>
        <time>2017-02-22T09:37:58Z</time>
      </trkpt>
      <trkpt lat="42.70447" lon="1.16708">
        <ele>2547.15</ele>
        <time>2017-02-22T09:38:47Z</time>
      </trkpt>
      <trkpt lat="42.70437" lon="1.16652">
        <ele>2559.17</ele>
        <time>2017-02-22T09:40:36Z</time>
      </trkpt>
      <trkpt lat="42.70463" lon="1.16663">
        <ele>2567.34</ele>
        <time>2017-02-22T09:42:47Z</time>
      </trkpt>
      <trkpt lat="42.70483" lon="1.16672">
        <ele>2569.74</ele>
        <time>2017-02-22T09:43:22Z</time>
      </trkpt>
      <trkpt lat="42.70493" lon="1.16657">
        <ele>2570.22</ele>
        <time>2017-02-22T09:44:36Z</time>
      </trkpt>
      <trkpt lat="42.70501" lon="1.16662">
        <ele>2567.34</ele>
        <time>2017-02-22T09:46:00Z</time>
      </trkpt>
      <trkpt lat="42.7051" lon="1.1666">
        <ele>2563.49</ele>
        <time>2017-02-22T09:47:41Z</time>
      </trkpt>
      <trkpt lat="42.70519" lon="1.16653">
        <ele>2558.21</ele>
        <time>2017-02-22T09:48:14Z</time>
      </trkpt>
      <trkpt lat="42.70518" lon="1.16643">
        <ele>2555.8</ele>
        <time>2017-02-22T09:48:28Z</time>
      </trkpt>
      <trkpt lat="42.7053" lon="1.16641">
        <ele>2551.48</ele>
        <time>2017-02-22T09:48:52Z</time>
      </trkpt>
      <trkpt lat="42.70526" lon="1.1662">
        <ele>2545.71</ele>
        <time>2017-02-22T09:49:42Z</time>
      </trkpt>
      <trkpt lat="42.70546" lon="1.16596">
        <ele>2532.73</ele>
        <time>2017-02-22T09:51:32Z</time>
      </trkpt>
      <trkpt lat="42.7055" lon="1.16575">
        <ele>2526</ele>
        <time>2017-02-22T09:52:26Z</time>
      </trkpt>
      <trkpt lat="42.70559" lon="1.1655">
        <ele>2522.16</ele>
        <time>2017-02-22T09:52:46Z</time>
      </trkpt>
      <trkpt lat="42.70561" lon="1.16549">
        <ele>2519.75</ele>
        <time>2017-02-22T09:57:32Z</time>
      </trkpt>
      <trkpt lat="42.70559" lon="1.16549">
        <ele>2519.27</ele>
        <time>2017-02-22T10:01:52Z</time>
      </trkpt>
      <trkpt lat="42.70573" lon="1.1655">
        <ele>2515.91</ele>
        <time>2017-02-22T10:57:26Z</time>
      </trkpt>
      <trkpt lat="42.70631" lon="1.16528">
        <ele>2508.7</ele>
        <time>2017-02-22T10:58:41Z</time>
      </trkpt>
      <trkpt lat="42.70633" lon="1.16519">
        <ele>2503.89</ele>
        <time>2017-02-22T10:59:34Z</time>
      </trkpt>
      <trkpt lat="42.70645" lon="1.16538">
        <ele>2499.08</ele>
        <time>2017-02-22T11:00:14Z</time>
      </trkpt>
      <trkpt lat="42.70652" lon="1.16552">
        <ele>2494.28</ele>
        <time>2017-02-22T11:00:18Z</time>
      </trkpt>
      <trkpt lat="42.70685" lon="1.16565">
        <ele>2490.43</ele>
        <time>2017-02-22T11:00:33Z</time>
      </trkpt>
      <trkpt lat="42.70678" lon="1.16559">
        <ele>2516.39</ele>
        <time>2017-02-22T11:06:52Z</time>
      </trkpt>
      <trkpt lat="42.70671" lon="1.16551">
        <ele>2488.99</ele>
        <time>2017-02-22T11:09:21Z</time>
      </trkpt>
      <trkpt lat="42.70664" lon="1.16533">
        <ele>2486.59</ele>
        <time>2017-02-22T11:09:47Z</time>
      </trkpt>
      <trkpt lat="42.70673" lon="1.16523">
        <ele>2483.7</ele>
        <time>2017-02-22T11:10:11Z</time>
      </trkpt>
      <trkpt lat="42.70687" lon="1.16523">
        <ele>2481.3</ele>
        <time>2017-02-22T11:10:22Z</time>
      </trkpt>
      <trkpt lat="42.70678" lon="1.16509">
        <ele>2477.45</ele>
        <time>2017-02-22T11:10:44Z</time>
      </trkpt>
      <trkpt lat="42.70704" lon="1.16482">
        <ele>2465.92</ele>
        <time>2017-02-22T11:11:06Z</time>
      </trkpt>
      <trkpt lat="42.70718" lon="1.16461">
        <ele>2457.27</ele>
        <time>2017-02-22T11:11:16Z</time>
      </trkpt>
      <trkpt lat="42.70724" lon="1.16448">
        <ele>2450.54</ele>
        <time>2017-02-22T11:11:22Z</time>
      </trkpt>
      <trkpt lat="42.70721" lon="1.1645">
        <ele>2449.1</ele>
        <time>2017-02-22T11:11:39Z</time>
      </trkpt>
      <trkpt lat="42.70707" lon="1.16437">
        <ele>2441.89</ele>
        <time>2017-02-22T11:11:45Z</time>
      </trkpt>
      <trkpt lat="42.70712" lon="1.16426">
        <ele>2434.68</ele>
        <time>2017-02-22T11:11:48Z</time>
      </trkpt>
      <trkpt lat="42.70699" lon="1.16399">
        <ele>2418.81</ele>
        <time>2017-02-22T11:11:55Z</time>
      </trkpt>
      <trkpt lat="42.707" lon="1.16377">
        <ele>2406.8</ele>
        <time>2017-02-22T11:11:59Z</time>
      </trkpt>
      <trkpt lat="42.70688" lon="1.16368">
        <ele>2400.07</ele>
        <time>2017-02-22T11:12:04Z</time>
      </trkpt>
      <trkpt lat="42.70698" lon="1.16355">
        <ele>2394.3</ele>
        <time>2017-02-22T11:12:28Z</time>
      </trkpt>
      <trkpt lat="42.70721" lon="1.16331">
        <ele>2389.97</ele>
        <time>2017-02-22T11:12:42Z</time>
      </trkpt>
      <trkpt lat="42.70717" lon="1.16316">
        <ele>2385.17</ele>
        <time>2017-02-22T11:12:46Z</time>
      </trkpt>
      <trkpt lat="42.70708" lon="1.1629">
        <ele>2374.11</ele>
        <time>2017-02-22T11:12:50Z</time>
      </trkpt>
      <trkpt lat="42.70701" lon="1.16227">
        <ele>2359.21</ele>
        <time>2017-02-22T11:14:45Z</time>
      </trkpt>
      <trkpt lat="42.70739" lon="1.16196">
        <ele>2335.66</ele>
        <time>2017-02-22T11:25:12Z</time>
      </trkpt>
      <trkpt lat="42.70774" lon="1.16154">
        <ele>2334.7</ele>
        <time>2017-02-22T11:27:00Z</time>
      </trkpt>
      <trkpt lat="42.70773" lon="1.16112">
        <ele>2322.68</ele>
        <time>2017-02-22T11:27:18Z</time>
      </trkpt>
      <trkpt lat="42.70791" lon="1.16091">
        <ele>2319.32</ele>
        <time>2017-02-22T11:27:24Z</time>
      </trkpt>
      <trkpt lat="42.70838" lon="1.16043">
        <ele>2329.41</ele>
        <time>2017-02-22T11:28:02Z</time>
      </trkpt>
      <trkpt lat="42.70845" lon="1.16033">
        <ele>2307.3</ele>
        <time>2017-02-22T11:28:18Z</time>
      </trkpt>
      <trkpt lat="42.70844" lon="1.15998">
        <ele>2299.13</ele>
        <time>2017-02-22T11:28:24Z</time>
      </trkpt>
      <trkpt lat="42.70839" lon="1.1594">
        <ele>2280.38</ele>
        <time>2017-02-22T11:28:33Z</time>
      </trkpt>
      <trkpt lat="42.70831" lon="1.1591">
        <ele>2271.25</ele>
        <time>2017-02-22T11:28:38Z</time>
      </trkpt>
      <trkpt lat="42.70832" lon="1.15888">
        <ele>2262.6</ele>
        <time>2017-02-22T11:28:41Z</time>
      </trkpt>
      <trkpt lat="42.70803" lon="1.15882">
        <ele>2255.87</ele>
        <time>2017-02-22T11:29:27Z</time>
      </trkpt>
      <trkpt lat="42.70797" lon="1.15871">
        <ele>2251.54</ele>
        <time>2017-02-22T11:29:30Z</time>
      </trkpt>
      <trkpt lat="42.70801" lon="1.15862">
        <ele>2250.58</ele>
        <time>2017-02-22T11:29:32Z</time>
      </trkpt>
      <trkpt lat="42.70793" lon="1.15856">
        <ele>2247.22</ele>
        <time>2017-02-22T11:29:35Z</time>
      </trkpt>
      <trkpt lat="42.70783" lon="1.15844">
        <ele>2244.33</ele>
        <time>2017-02-22T11:29:39Z</time>
      </trkpt>
      <trkpt lat="42.70757" lon="1.15808">
        <ele>2232.8</ele>
        <time>2017-02-22T11:29:54Z</time>
      </trkpt>
      <trkpt lat="42.70738" lon="1.15813">
        <ele>2227.03</ele>
        <time>2017-02-22T11:30:01Z</time>
      </trkpt>
      <trkpt lat="42.70734" lon="1.1575">
        <ele>2218.86</ele>
        <time>2017-02-22T11:30:16Z</time>
      </trkpt>
      <trkpt lat="42.70724" lon="1.15746">
        <ele>2215.5</ele>
        <time>2017-02-22T11:30:20Z</time>
      </trkpt>
      <trkpt lat="42.70716" lon="1.157">
        <ele>2203.48</ele>
        <time>2017-02-22T11:30:31Z</time>
      </trkpt>
      <trkpt lat="42.70718" lon="1.15675">
        <ele>2201.08</ele>
        <time>2017-02-22T11:30:35Z</time>
      </trkpt>
      <trkpt lat="42.70722" lon="1.15625">
        <ele>2193.39</ele>
        <time>2017-02-22T11:30:41Z</time>
      </trkpt>
      <trkpt lat="42.70723" lon="1.15591">
        <ele>2192.42</ele>
        <time>2017-02-22T11:30:46Z</time>
      </trkpt>
      <trkpt lat="42.70691" lon="1.15579">
        <ele>2177.04</ele>
        <time>2017-02-22T11:30:53Z</time>
      </trkpt>
      <trkpt lat="42.70668" lon="1.15576">
        <ele>2163.1</ele>
        <time>2017-02-22T11:30:58Z</time>
      </trkpt>
      <trkpt lat="42.70672" lon="1.15505">
        <ele>2161.18</ele>
        <time>2017-02-22T11:31:15Z</time>
      </trkpt>
      <trkpt lat="42.70663" lon="1.15513">
        <ele>2156.37</ele>
        <time>2017-02-22T11:31:25Z</time>
      </trkpt>
      <trkpt lat="42.70654" lon="1.1548">
        <ele>2147.24</ele>
        <time>2017-02-22T11:31:34Z</time>
      </trkpt>
      <trkpt lat="42.70671" lon="1.15389">
        <ele>2127.53</ele>
        <time>2017-02-22T11:32:14Z</time>
      </trkpt>
      <trkpt lat="42.70655" lon="1.15363">
        <ele>2109.27</ele>
        <time>2017-02-22T11:32:23Z</time>
      </trkpt>
      <trkpt lat="42.7066" lon="1.15262">
        <ele>2102.54</ele>
        <time>2017-02-22T11:32:43Z</time>
      </trkpt>
      <trkpt lat="42.70661" lon="1.15241">
        <ele>2099.18</ele>
        <time>2017-02-22T11:32:52Z</time>
      </trkpt>
      <trkpt lat="42.70658" lon="1.15205">
        <ele>2087.64</ele>
        <time>2017-02-22T11:33:18Z</time>
      </trkpt>
      <trkpt lat="42.70646" lon="1.15183">
        <ele>2077.55</ele>
        <time>2017-02-22T11:33:37Z</time>
      </trkpt>
      <trkpt lat="42.70667" lon="1.15161">
        <ele>2068.41</ele>
        <time>2017-02-22T11:33:56Z</time>
      </trkpt>
      <trkpt lat="42.7065" lon="1.15149">
        <ele>2063.61</ele>
        <time>2017-02-22T11:34:09Z</time>
      </trkpt>
      <trkpt lat="42.70681" lon="1.15117">
        <ele>2050.15</ele>
        <time>2017-02-22T11:34:29Z</time>
      </trkpt>
      <trkpt lat="42.70667" lon="1.15101">
        <ele>2044.86</ele>
        <time>2017-02-22T11:34:42Z</time>
      </trkpt>
      <trkpt lat="42.70664" lon="1.1507">
        <ele>2033.81</ele>
        <time>2017-02-22T11:34:51Z</time>
      </trkpt>
      <trkpt lat="42.70673" lon="1.15043">
        <ele>2023.71</ele>
        <time>2017-02-22T11:35:03Z</time>
      </trkpt>
      <trkpt lat="42.70658" lon="1.15028">
        <ele>2016.98</ele>
        <time>2017-02-22T11:35:11Z</time>
      </trkpt>
      <trkpt lat="42.70655" lon="1.14999">
        <ele>2004.49</ele>
        <time>2017-02-22T11:35:28Z</time>
      </trkpt>
      <trkpt lat="42.70657" lon="1.14948">
        <ele>1991.03</ele>
        <time>2017-02-22T11:35:53Z</time>
      </trkpt>
      <trkpt lat="42.70643" lon="1.14943">
        <ele>1987.66</ele>
        <time>2017-02-22T11:36:07Z</time>
      </trkpt>
      <trkpt lat="42.70662" lon="1.14898">
        <ele>1984.78</ele>
        <time>2017-02-22T11:36:35Z</time>
      </trkpt>
      <trkpt lat="42.70663" lon="1.14896">
        <ele>1981.41</ele>
        <time>2017-02-22T11:38:08Z</time>
      </trkpt>
      <trkpt lat="42.707" lon="1.14902">
        <ele>1969.4</ele>
        <time>2017-02-22T11:39:50Z</time>
      </trkpt>
      <trkpt lat="42.70713" lon="1.14837">
        <ele>1960.27</ele>
        <time>2017-02-22T11:40:06Z</time>
      </trkpt>
      <trkpt lat="42.70697" lon="1.14786">
        <ele>1951.13</ele>
        <time>2017-02-22T11:40:16Z</time>
      </trkpt>
      <trkpt lat="42.70732" lon="1.14668">
        <ele>1928.54</ele>
        <time>2017-02-22T11:40:40Z</time>
      </trkpt>
      <trkpt lat="42.70728" lon="1.14658">
        <ele>1924.7</ele>
        <time>2017-02-22T11:40:42Z</time>
      </trkpt>
      <trkpt lat="42.70718" lon="1.14625">
        <ele>1919.89</ele>
        <time>2017-02-22T11:40:46Z</time>
      </trkpt>
      <trkpt lat="42.70727" lon="1.14606">
        <ele>1915.08</ele>
        <time>2017-02-22T11:40:50Z</time>
      </trkpt>
      <trkpt lat="42.70772" lon="1.14594">
        <ele>1912.68</ele>
        <time>2017-02-22T11:41:01Z</time>
      </trkpt>
      <trkpt lat="42.70794" lon="1.1459">
        <ele>1909.32</ele>
        <time>2017-02-22T11:41:05Z</time>
      </trkpt>
      <trkpt lat="42.70815" lon="1.14579">
        <ele>1906.43</ele>
        <time>2017-02-22T11:41:08Z</time>
      </trkpt>
      <trkpt lat="42.70831" lon="1.14556">
        <ele>1907.87</ele>
        <time>2017-02-22T11:41:12Z</time>
      </trkpt>
      <trkpt lat="42.70842" lon="1.14485">
        <ele>1906.91</ele>
        <time>2017-02-22T11:41:30Z</time>
      </trkpt>
      <trkpt lat="42.70867" lon="1.14445">
        <ele>1920.37</ele>
        <time>2017-02-22T11:42:02Z</time>
      </trkpt>
      <trkpt lat="42.70916" lon="1.14381">
        <ele>1899.22</ele>
        <time>2017-02-22T11:42:35Z</time>
      </trkpt>
      <trkpt lat="42.70976" lon="1.14258">
        <ele>1882.88</ele>
        <time>2017-02-22T11:42:59Z</time>
      </trkpt>
      <trkpt lat="42.71008" lon="1.1424">
        <ele>1877.11</ele>
        <time>2017-02-22T11:43:05Z</time>
      </trkpt>
      <trkpt lat="42.71012" lon="1.14204">
        <ele>1874.71</ele>
        <time>2017-02-22T11:43:10Z</time>
      </trkpt>
      <trkpt lat="42.71033" lon="1.1419">
        <ele>1867.5</ele>
        <time>2017-02-22T11:44:00Z</time>
      </trkpt>
      <trkpt lat="42.71043" lon="1.14156">
        <ele>1860.29</ele>
        <time>2017-02-22T11:44:08Z</time>
      </trkpt>
      <trkpt lat="42.71048" lon="1.14136">
        <ele>1856.44</ele>
        <time>2017-02-22T11:44:12Z</time>
      </trkpt>
      <trkpt lat="42.71063" lon="1.14122">
        <ele>1850.19</ele>
        <time>2017-02-22T11:44:19Z</time>
      </trkpt>
      <trkpt lat="42.7107" lon="1.14061">
        <ele>1832.41</ele>
        <time>2017-02-22T11:44:34Z</time>
      </trkpt>
      <trkpt lat="42.71059" lon="1.14009">
        <ele>1828.56</ele>
        <time>2017-02-22T11:44:41Z</time>
      </trkpt>
      <trkpt lat="42.71084" lon="1.13991">
        <ele>1824.24</ele>
        <time>2017-02-22T11:45:20Z</time>
      </trkpt>
      <trkpt lat="42.71088" lon="1.13961">
        <ele>1812.22</ele>
        <time>2017-02-22T11:46:00Z</time>
      </trkpt>
      <trkpt lat="42.71108" lon="1.13953">
        <ele>1806.45</ele>
        <time>2017-02-22T11:46:04Z</time>
      </trkpt>
      <trkpt lat="42.71148" lon="1.13929">
        <ele>1800.69</ele>
        <time>2017-02-22T11:46:10Z</time>
      </trkpt>
      <trkpt lat="42.71189" lon="1.13878">
        <ele>1795.4</ele>
        <time>2017-02-22T11:46:24Z</time>
      </trkpt>
      <trkpt lat="42.71188" lon="1.13857">
        <ele>1785.79</ele>
        <time>2017-02-22T11:46:30Z</time>
      </trkpt>
      <trkpt lat="42.71211" lon="1.13799">
        <ele>1780.5</ele>
        <time>2017-02-22T11:46:39Z</time>
      </trkpt>
      <trkpt lat="42.71209" lon="1.13741">
        <ele>1779.54</ele>
        <time>2017-02-22T11:46:53Z</time>
      </trkpt>
      <trkpt lat="42.71207" lon="1.13674">
        <ele>1775.69</ele>
        <time>2017-02-22T11:47:09Z</time>
      </trkpt>
      <trkpt lat="42.71214" lon="1.1362">
        <ele>1770.89</ele>
        <time>2017-02-22T11:47:19Z</time>
      </trkpt>
      <trkpt lat="42.71248" lon="1.136">
        <ele>1784.82</ele>
        <time>2017-02-22T11:51:22Z</time>
      </trkpt>
      <trkpt lat="42.71305" lon="1.13474">
        <ele>1755.5</ele>
        <time>2017-02-22T11:53:07Z</time>
      </trkpt>
      <trkpt lat="42.71333" lon="1.1342">
        <ele>1740.12</ele>
        <time>2017-02-22T11:53:24Z</time>
      </trkpt>
      <trkpt lat="42.71369" lon="1.13386">
        <ele>1736.76</ele>
        <time>2017-02-22T11:53:32Z</time>
      </trkpt>
      <trkpt lat="42.71361" lon="1.13369">
        <ele>1732.43</ele>
        <time>2017-02-22T11:53:37Z</time>
      </trkpt>
      <trkpt lat="42.71379" lon="1.13338">
        <ele>1722.82</ele>
        <time>2017-02-22T11:53:55Z</time>
      </trkpt>
      <trkpt lat="42.71362" lon="1.13311">
        <ele>1714.17</ele>
        <time>2017-02-22T11:54:04Z</time>
      </trkpt>
      <trkpt lat="42.71368" lon="1.13273">
        <ele>1705.04</ele>
        <time>2017-02-22T11:54:12Z</time>
      </trkpt>
      <trkpt lat="42.71412" lon="1.13234">
        <ele>1699.27</ele>
        <time>2017-02-22T11:55:19Z</time>
      </trkpt>
      <trkpt lat="42.71415" lon="1.13231">
        <ele>1696.86</ele>
        <time>2017-02-22T11:55:25Z</time>
      </trkpt>
      <trkpt lat="42.71388" lon="1.13202">
        <ele>1693.98</ele>
        <time>2017-02-22T11:57:06Z</time>
      </trkpt>
      <trkpt lat="42.71393" lon="1.1319">
        <ele>1680.04</ele>
        <time>2017-02-22T11:58:20Z</time>
      </trkpt>
      <trkpt lat="42.71397" lon="1.13169">
        <ele>1677.64</ele>
        <time>2017-02-22T11:58:36Z</time>
      </trkpt>
      <trkpt lat="42.71396" lon="1.13168">
        <ele>1676.2</ele>
        <time>2017-02-22T11:58:37Z</time>
      </trkpt>
      <trkpt lat="42.71413" lon="1.13134">
        <ele>1678.12</ele>
        <time>2017-02-22T11:59:47Z</time>
      </trkpt>
      <trkpt lat="42.7143" lon="1.13126">
        <ele>1691.58</ele>
        <time>2017-02-22T12:00:35Z</time>
      </trkpt>
      <trkpt lat="42.7143" lon="1.13126">
        <ele>1696.86</ele>
        <time>2017-02-22T12:00:39Z</time>
      </trkpt>
      <trkpt lat="42.71468" lon="1.13069">
        <ele>1676.68</ele>
        <time>2017-02-22T12:06:58Z</time>
      </trkpt>
      <trkpt lat="42.71465" lon="1.13062">
        <ele>1674.27</ele>
        <time>2017-02-22T12:07:06Z</time>
      </trkpt>
      <trkpt lat="42.71466" lon="1.13043">
        <ele>1668.99</ele>
        <time>2017-02-22T12:07:13Z</time>
      </trkpt>
      <trkpt lat="42.71483" lon="1.12999">
        <ele>1662.26</ele>
        <time>2017-02-22T12:07:30Z</time>
      </trkpt>
      <trkpt lat="42.71493" lon="1.12988">
        <ele>1659.85</ele>
        <time>2017-02-22T12:07:36Z</time>
      </trkpt>
      <trkpt lat="42.71511" lon="1.12977">
        <ele>1658.41</ele>
        <time>2017-02-22T12:08:01Z</time>
      </trkpt>
      <trkpt lat="42.71472" lon="1.12892">
        <ele>1643.51</ele>
        <time>2017-02-22T12:17:22Z</time>
      </trkpt>
      <trkpt lat="42.71489" lon="1.12839">
        <ele>1620.44</ele>
        <time>2017-02-22T12:19:30Z</time>
      </trkpt>
      <trkpt lat="42.7149" lon="1.12799">
        <ele>1617.07</ele>
        <time>2017-02-22T12:19:44Z</time>
      </trkpt>
      <trkpt lat="42.71489" lon="1.12764">
        <ele>1614.67</ele>
        <time>2017-02-22T12:20:03Z</time>
      </trkpt>
      <trkpt lat="42.71517" lon="1.12646">
        <ele>1583.43</ele>
        <time>2017-02-22T12:29:14Z</time>
      </trkpt>
      <trkpt lat="42.71516" lon="1.12634">
        <ele>1580.06</ele>
        <time>2017-02-22T12:29:48Z</time>
      </trkpt>
      <trkpt lat="42.71512" lon="1.12607">
        <ele>1575.26</ele>
        <time>2017-02-22T12:30:24Z</time>
      </trkpt>
      <trkpt lat="42.71507" lon="1.12597">
        <ele>1574.3</ele>
        <time>2017-02-22T12:30:31Z</time>
      </trkpt>
      <trkpt lat="42.71491" lon="1.12563">
        <ele>1580.06</ele>
        <time>2017-02-22T12:31:12Z</time>
      </trkpt>
      <trkpt lat="42.71512" lon="1.12455">
        <ele>1561.32</ele>
        <time>2017-02-22T12:34:42Z</time>
      </trkpt>
      <trkpt lat="42.71515" lon="1.12444">
        <ele>1552.19</ele>
        <time>2017-02-22T12:35:05Z</time>
      </trkpt>
      <trkpt lat="42.7152" lon="1.12434">
        <ele>1557.95</ele>
        <time>2017-02-22T12:37:09Z</time>
      </trkpt>
      <trkpt lat="42.71518" lon="1.12435">
        <ele>1549.78</ele>
        <time>2017-02-22T12:46:25Z</time>
      </trkpt>
      <trkpt lat="42.71525" lon="1.12424">
        <ele>1548.82</ele>
        <time>2017-02-22T12:46:57Z</time>
      </trkpt>
      <trkpt lat="42.71541" lon="1.12371">
        <ele>1540.65</ele>
        <time>2017-02-22T12:48:16Z</time>
      </trkpt>
      <trkpt lat="42.71556" lon="1.12331">
        <ele>1535.36</ele>
        <time>2017-02-22T12:49:13Z</time>
      </trkpt>
      <trkpt lat="42.7157" lon="1.12311">
        <ele>1530.08</ele>
        <time>2017-02-22T12:50:03Z</time>
      </trkpt>
      <trkpt lat="42.71581" lon="1.12273">
        <ele>1524.79</ele>
        <time>2017-02-22T12:50:42Z</time>
      </trkpt>
      <trkpt lat="42.71594" lon="1.12228">
        <ele>1519.5</ele>
        <time>2017-02-22T12:51:25Z</time>
      </trkpt>
      <trkpt lat="42.71601" lon="1.12209">
        <ele>1517.58</ele>
        <time>2017-02-22T12:51:40Z</time>
      </trkpt>
      <trkpt lat="42.71607" lon="1.12168">
        <ele>1516.14</ele>
        <time>2017-02-22T12:52:14Z</time>
      </trkpt>
      <trkpt lat="42.71634" lon="1.12065">
        <ele>1494.03</ele>
        <time>2017-02-22T12:54:26Z</time>
      </trkpt>
      <trkpt lat="42.71596" lon="1.1207">
        <ele>1481.53</ele>
        <time>2017-02-22T12:55:23Z</time>
      </trkpt>
      <trkpt lat="42.71584" lon="1.12045">
        <ele>1478.16</ele>
        <time>2017-02-22T12:55:55Z</time>
      </trkpt>
      <trkpt lat="42.71578" lon="1.12044">
        <ele>1470.95</ele>
        <time>2017-02-22T12:56:13Z</time>
      </trkpt>
      <trkpt lat="42.71562" lon="1.11968">
        <ele>1460.86</ele>
        <time>2017-02-22T12:57:22Z</time>
      </trkpt>
      <trkpt lat="42.71556" lon="1.1194">
        <ele>1453.17</ele>
        <time>2017-02-22T12:57:53Z</time>
      </trkpt>
      <trkpt lat="42.71529" lon="1.11879">
        <ele>1436.83</ele>
        <time>2017-02-22T12:58:57Z</time>
      </trkpt>
      <trkpt lat="42.71531" lon="1.11833">
        <ele>1422.89</ele>
        <time>2017-02-22T12:59:46Z</time>
      </trkpt>
      <trkpt lat="42.71517" lon="1.11821">
        <ele>1419.52</ele>
        <time>2017-02-22T13:00:30Z</time>
      </trkpt>
      <trkpt lat="42.71517" lon="1.11821">
        <ele>1418.08</ele>
        <time>2017-02-22T13:01:15Z</time>
      </trkpt>
      <trkpt lat="42.71526" lon="1.1182">
        <ele>1412.79</ele>
        <time>2017-02-22T13:28:49Z</time>
      </trkpt>
      <trkpt lat="42.71483" lon="1.11836">
        <ele>1404.62</ele>
        <time>2017-02-22T13:30:15Z</time>
      </trkpt>
      <trkpt lat="42.71463" lon="1.11833">
        <ele>1398.86</ele>
        <time>2017-02-22T13:30:50Z</time>
      </trkpt>
      <trkpt lat="42.71485" lon="1.11795">
        <ele>1392.13</ele>
        <time>2017-02-22T13:31:26Z</time>
      </trkpt>
      <trkpt lat="42.71474" lon="1.11799">
        <ele>1390.2</ele>
        <time>2017-02-22T13:31:44Z</time>
      </trkpt>
      <trkpt lat="42.71457" lon="1.11802">
        <ele>1387.32</ele>
        <time>2017-02-22T13:32:03Z</time>
      </trkpt>
      <trkpt lat="42.71477" lon="1.11776">
        <ele>1382.03</ele>
        <time>2017-02-22T13:32:34Z</time>
      </trkpt>
      <trkpt lat="42.71542" lon="1.1174">
        <ele>1369.05</ele>
        <time>2017-02-22T13:33:51Z</time>
      </trkpt>
      <trkpt lat="42.71604" lon="1.11718">
        <ele>1358.96</ele>
        <time>2017-02-22T13:34:59Z</time>
      </trkpt>
      <trkpt lat="42.71602" lon="1.11709">
        <ele>1357.04</ele>
        <time>2017-02-22T13:35:14Z</time>
      </trkpt>
      <trkpt lat="42.71571" lon="1.11706">
        <ele>1351.27</ele>
        <time>2017-02-22T13:35:44Z</time>
      </trkpt>
      <trkpt lat="42.71546" lon="1.11676">
        <ele>1345.5</ele>
        <time>2017-02-22T13:36:17Z</time>
      </trkpt>
      <trkpt lat="42.71495" lon="1.11633">
        <ele>1331.56</ele>
        <time>2017-02-22T13:37:23Z</time>
      </trkpt>
      <trkpt lat="42.71453" lon="1.11619">
        <ele>1324.35</ele>
        <time>2017-02-22T13:38:06Z</time>
      </trkpt>
      <trkpt lat="42.71396" lon="1.11571">
        <ele>1329.16</ele>
        <time>2017-02-22T13:40:09Z</time>
      </trkpt>
      <trkpt lat="42.71404" lon="1.11566">
        <ele>1337.33</ele>
        <time>2017-02-22T13:43:50Z</time>
      </trkpt>
      <trkpt lat="42.71386" lon="1.1156">
        <ele>1331.08</ele>
        <time>2017-02-22T13:45:05Z</time>
      </trkpt>
      <trkpt lat="42.71316" lon="1.11505">
        <ele>1336.37</ele>
        <time>2017-02-22T13:46:26Z</time>
      </trkpt>
      <trkpt lat="42.71294" lon="1.11454">
        <ele>1340.22</ele>
        <time>2017-02-22T13:47:12Z</time>
      </trkpt>
      <trkpt lat="42.71287" lon="1.11403">
        <ele>1338.77</ele>
        <time>2017-02-22T13:47:45Z</time>
      </trkpt>
      <trkpt lat="42.71278" lon="1.11375">
        <ele>1338.29</ele>
        <time>2017-02-22T13:48:04Z</time>
      </trkpt>
      <trkpt lat="42.71242" lon="1.11286">
        <ele>1337.81</ele>
        <time>2017-02-22T13:49:17Z</time>
      </trkpt>
      <trkpt lat="42.71211" lon="1.11165">
        <ele>1328.2</ele>
        <time>2017-02-22T13:50:43Z</time>
      </trkpt>
      <trkpt lat="42.71152" lon="1.11059">
        <ele>1318.1</ele>
        <time>2017-02-22T13:52:03Z</time>
      </trkpt>
      <trkpt lat="42.71094" lon="1.11019">
        <ele>1312.82</ele>
        <time>2017-02-22T13:53:08Z</time>
      </trkpt>
      <trkpt lat="42.71081" lon="1.11008">
        <ele>1310.9</ele>
        <time>2017-02-22T13:53:27Z</time>
      </trkpt>
      <trkpt lat="42.70987" lon="1.10861">
        <ele>1302.72</ele>
        <time>2017-02-22T13:55:23Z</time>
      </trkpt>
      <trkpt lat="42.70937" lon="1.10826">
        <ele>1299.36</ele>
        <time>2017-02-22T13:56:23Z</time>
      </trkpt>
      <trkpt lat="42.70926" lon="1.10828">
        <ele>1297.44</ele>
        <time>2017-02-22T13:57:44Z</time>
      </trkpt>
      <trkpt lat="42.70865" lon="1.10791">
        <ele>1291.67</ele>
        <time>2017-02-22T13:57:58Z</time>
      </trkpt>
      <trkpt lat="42.70767" lon="1.10708">
        <ele>1289.27</ele>
        <time>2017-02-22T13:58:14Z</time>
      </trkpt>
      <trkpt lat="42.70733" lon="1.10569">
        <ele>1286.38</ele>
        <time>2017-02-22T13:58:29Z</time>
      </trkpt>
      <trkpt lat="42.70715" lon="1.10433">
        <ele>1283.98</ele>
        <time>2017-02-22T13:58:42Z</time>
      </trkpt>
      <trkpt lat="42.70641" lon="1.10318">
        <ele>1287.82</ele>
        <time>2017-02-22T13:58:57Z</time>
      </trkpt>
      <trkpt lat="42.70628" lon="1.10257">
        <ele>1290.23</ele>
        <time>2017-02-22T13:59:04Z</time>
      </trkpt>
      <trkpt lat="42.70619" lon="1.10207">
        <ele>1289.75</ele>
        <time>2017-02-22T13:59:09Z</time>
      </trkpt>
      <trkpt lat="42.70579" lon="1.10155">
        <ele>1286.38</ele>
        <time>2017-02-22T13:59:16Z</time>
      </trkpt>
      <trkpt lat="42.70463" lon="1.10108">
        <ele>1282.54</ele>
        <time>2017-02-22T13:59:29Z</time>
      </trkpt>
      <trkpt lat="42.70376" lon="1.10063">
        <ele>1276.29</ele>
        <time>2017-02-22T13:59:38Z</time>
      </trkpt>
      <trkpt lat="42.70249" lon="1.10123">
        <ele>1275.81</ele>
        <time>2017-02-22T13:59:53Z</time>
      </trkpt>
      <trkpt lat="42.70218" lon="1.10142">
        <ele>1277.25</ele>
        <time>2017-02-22T13:59:57Z</time>
      </trkpt>
      <trkpt lat="42.7017" lon="1.10136">
        <ele>1276.29</ele>
        <time>2017-02-22T14:00:02Z</time>
      </trkpt>
      <trkpt lat="42.70098" lon="1.10099">
        <ele>1274.36</ele>
        <time>2017-02-22T14:00:09Z</time>
      </trkpt>
      <trkpt lat="42.70045" lon="1.10031">
        <ele>1272.92</ele>
        <time>2017-02-22T14:00:16Z</time>
      </trkpt>
      <trkpt lat="42.70011" lon="1.09874">
        <ele>1275.81</ele>
        <time>2017-02-22T14:00:30Z</time>
      </trkpt>
      <trkpt lat="42.69931" lon="1.09792">
        <ele>1271.96</ele>
        <time>2017-02-22T14:00:42Z</time>
      </trkpt>
      <trkpt lat="42.69908" lon="1.09766">
        <ele>1276.29</ele>
        <time>2017-02-22T14:00:48Z</time>
      </trkpt>
      <trkpt lat="42.69898" lon="1.09744">
        <ele>1280.13</ele>
        <time>2017-02-22T14:00:53Z</time>
      </trkpt>
      <trkpt lat="42.69907" lon="1.09722">
        <ele>1284.46</ele>
        <time>2017-02-22T14:00:59Z</time>
      </trkpt>
      <trkpt lat="42.69979" lon="1.09785">
        <ele>1288.3</ele>
        <time>2017-02-22T14:01:05Z</time>
      </trkpt>
      <trkpt lat="42.69985" lon="1.098">
        <ele>1289.75</ele>
        <time>2017-02-22T14:01:07Z</time>
      </trkpt>
      <trkpt lat="42.70012" lon="1.09807">
        <ele>1289.75</ele>
        <time>2017-02-22T14:01:22Z</time>
      </trkpt>
      <trkpt lat="42.69992" lon="1.09787">
        <ele>1290.71</ele>
        <time>2017-02-22T14:04:48Z</time>
      </trkpt>
      <trkpt lat="42.69994" lon="1.09777">
        <ele>1292.15</ele>
        <time>2017-02-22T14:05:57Z</time>
      </trkpt>
      <trkpt lat="42.69994" lon="1.09777">
        <ele>1291.19</ele>
        <time>2017-02-22T14:06:03Z</time>
      </trkpt>
    </trkseg>
  </trk>
</gpx>